Lingwood, United Kingdom
Current Conditions -  °F | °C
As of 5:20 AM on Sunday 26 Oct 2014 (Local Time) from EGSH Reporting Station
Overcast Overcast  
Wind Chill: 52°   Ceiling: 3100
Heat Index: 52°   Visibility: 6mi
Dew Point: 48°   Wind: 9mph
Humidity: 88%   Direction: 190°S
Pressure: 30.09"   Gusts: NA
Location:  52.62°N, 1.49°E
Report Text: EGSH 260420Z AUTO 19008KT 140V220 9999 OVC031/// 11/09 Q1019
Loading
Personal Weather Stations






























Interactive Weather Map
Tropical Storm Tracking
New forecast layout! Learn more

10-Day Weather Forecast

Advertisements
Track Severe Weather on mobile